Columbia, Missouri
Current Conditions -  °F | °C
As of 7:54 AM on Thursday 29 Jan 2015 (Local Time) from KCOU Reporting Station
Overcast Overcast  
Wind Chill: -1°   Ceiling: 2000
Heat Index:   Visibility: 10mi
Dew Point:   Wind: 20mph
Humidity: 73%   Direction: 320°NW
Pressure: 30.11"   Gusts: 29mph
Location:  38.95°N, 92.33°W
Report Text: KCOU 291354Z 32017G25KT 10SM OVC020 04/00 A3011 RMK AO2 PK WND 31028/1255 SLP198 T00440000
Loading
Personal Weather Stations






























Interactive Weather Map New forecast layout! Learn more

10-Day Weather Forecast

Advertisements
Track Severe Weather on mobile